Terminal Aerodrome Forecast
Issued by NWS Northern Indiana

Home | Current Version | Previous Version | Graphics & Text | Print | Product List | Glossary On
Versions: 1 2 3 4 5 6 7 8 9 10 11 12 13 14 15 16 17 18 19 20 21 22
000
FTUS43 KIWX 190900 AAA
TAFFWA
TAF AMD
KFWA 190947Z 1910/2006 00000KT 4SM BR FEW040
     FM191400 22010KT P6SM SCT040
     FM192200 22010KT P6SM VCTS BKN035CB
     FM200200 VRB03KT P6SM SCT035=

USA.gov is the U.S. government's official web portal to all federal, state and local government web resources and services.